sensor_id;sensor_type;location;lat;lon;timestamp;pressure;altitude;pressure_sealevel;temperature;humidity
23281;BME280;11809;56.390;-3.266;2022-11-27T00:01:19;99601.97;;;12.74;67.07
23281;BME280;11809;56.390;-3.266;2022-11-27T00:03:46;99594.91;;;12.74;67.26
23281;BME280;11809;56.390;-3.266;2022-11-27T00:06:16;99598.47;;;12.73;67.17
23281;BME280;11809;56.390;-3.266;2022-11-27T00:08:44;99611.66;;;12.73;67.23
23281;BME280;11809;56.390;-3.266;2022-11-27T00:11:15;99615.22;;;12.72;67.07
23281;BME280;11809;56.390;-3.266;2022-11-27T00:13:42;99602.66;;;12.63;67.15
23281;BME280;11809;56.390;-3.266;2022-11-27T00:16:11;99618.63;;;12.74;67.12
23281;BME280;11809;56.390;-3.266;2022-11-27T00:18:39;99602.81;;;12.74;67.42
23281;BME280;11809;56.390;-3.266;2022-11-27T00:21:10;99609.41;;;12.67;67.15
23281;BME280;11809;56.390;-3.266;2022-11-27T00:23:38;99604.31;;;12.64;67.37
23281;BME280;11809;56.390;-3.266;2022-11-27T00:26:06;99605.44;;;12.74;67.30
23281;BME280;11809;56.390;-3.266;2022-11-27T00:28:34;99590.44;;;12.75;67.35
23281;BME280;11809;56.390;-3.266;2022-11-27T00:31:04;99604.47;;;12.75;67.20
23281;BME280;11809;56.390;-3.266;2022-11-27T00:33:32;99617.66;;;12.75;67.43
23281;BME280;11809;56.390;-3.266;2022-11-27T00:36:06;99576.00;;;12.68;67.33
23281;BME280;11809;56.390;-3.266;2022-11-27T00:38:34;99608.91;;;12.75;67.60
23281;BME280;11809;56.390;-3.266;2022-11-27T00:41:14;99608.06;;;12.74;67.50
23281;BME280;11809;56.390;-3.266;2022-11-27T00:43:41;99626.53;;;12.74;67.47
23281;BME280;11809;56.390;-3.266;2022-11-27T00:46:19;99623.03;;;12.74;67.51
23281;BME280;11809;56.390;-3.266;2022-11-27T00:48:57;99615.03;;;12.75;67.53
23281;BME280;11809;56.390;-3.266;2022-11-27T00:51:25;99624.72;;;12.75;67.50
23281;BME280;11809;56.390;-3.266;2022-11-27T00:53:53;99624.63;;;12.76;67.51
23281;BME280;11809;56.390;-3.266;2022-11-27T00:56:24;99603.53;;;12.76;67.61
23281;BME280;11809;56.390;-3.266;2022-11-27T00:58:52;99611.44;;;12.76;67.45
23281;BME280;11809;56.390;-3.266;2022-11-27T01:01:40;99618.41;;;12.77;67.64
23281;BME280;11809;56.390;-3.266;2022-11-27T01:04:11;99629.78;;;12.78;67.59
23281;BME280;11809;56.390;-3.266;2022-11-27T01:06:39;99621.53;;;12.70;67.70
23281;BME280;11809;56.390;-3.266;2022-11-27T01:09:06;99635.91;;;12.78;67.74
23281;BME280;11809;56.390;-3.266;2022-11-27T01:11:34;99640.25;;;12.80;67.64
23281;BME280;11809;56.390;-3.266;2022-11-27T01:14:05;99650.81;;;12.80;67.59
23281;BME280;11809;56.390;-3.266;2022-11-27T01:16:32;99627.06;;;12.80;67.59
23281;BME280;11809;56.390;-3.266;2022-11-27T01:19:00;99640.00;;;12.70;67.72
23281;BME280;11809;56.390;-3.266;2022-11-27T01:21:29;99655.22;;;12.79;67.87
23281;BME280;11809;56.390;-3.266;2022-11-27T01:23:59;99648.16;;;12.80;67.76
23281;BME280;11809;56.390;-3.266;2022-11-27T01:26:26;99655.22;;;12.79;67.87
23281;BME280;11809;56.390;-3.266;2022-11-27T01:28:54;99646.97;;;12.71;67.78
23281;BME280;11809;56.390;-3.266;2022-11-27T01:31:25;99670.94;;;12.81;67.85
23281;BME280;11809;56.390;-3.266;2022-11-27T01:33:54;99683.19;;;12.82;67.64
23281;BME280;11809;56.390;-3.266;2022-11-27T01:36:22;99683.25;;;12.80;67.97
23281;BME280;11809;56.390;-3.266;2022-11-27T01:38:49;99693.72;;;12.82;67.79
23281;BME280;11809;56.390;-3.266;2022-11-27T01:41:25;99685.47;;;12.73;67.61
23281;BME280;11809;56.390;-3.266;2022-11-27T01:43:57;99682.63;;;12.76;67.59
23281;BME280;11809;56.390;-3.266;2022-11-27T01:46:32;99695.44;;;12.83;67.98
23281;BME280;11809;56.390;-3.266;2022-11-27T01:52:24;99675.66;;;12.75;67.88
23281;BME280;11809;56.390;-3.266;2022-11-27T01:54:57;99678.66;;;12.84;67.94
23281;BME280;11809;56.390;-3.266;2022-11-27T01:57:47;99688.25;;;12.85;67.61
23281;BME280;11809;56.390;-3.266;2022-11-27T02:00:17;99694.38;;;12.85;67.93
23281;BME280;11809;56.390;-3.266;2022-11-27T02:02:45;99693.06;;;12.78;67.62
23281;BME280;11809;56.390;-3.266;2022-11-27T02:05:20;99709.34;;;12.85;67.60
23281;BME280;11809;56.390;-3.266;2022-11-27T02:07:49;99694.03;;;12.77;67.60
23281;BME280;11809;56.390;-3.266;2022-11-27T02:10:17;99716.28;;;12.86;67.80
23281;BME280;11809;56.390;-3.266;2022-11-27T02:12:55;99698.44;;;12.76;67.59
23281;BME280;11809;56.390;-3.266;2022-11-27T02:26:53;99728.19;;;12.78;67.97
23281;BME280;11809;56.390;-3.266;2022-11-27T02:29:28;99728.94;;;12.81;67.72
23281;BME280;11809;56.390;-3.266;2022-11-27T02:35:19;99729.97;;;12.78;67.58
23281;BME280;11809;56.390;-3.266;2022-11-27T02:43:21;99760.94;;;12.89;67.60
23281;BME280;11809;56.390;-3.266;2022-11-27T02:45:51;99745.13;;;12.89;67.75
23281;BME280;11809;56.390;-3.266;2022-11-27T02:48:22;99741.63;;;12.88;67.75
23281;BME280;11809;56.390;-3.266;2022-11-27T02:50:51;99745.13;;;12.89;67.82
23281;BME280;11809;56.390;-3.266;2022-11-27T02:53:22;99748.59;;;12.89;67.78
23281;BME280;11809;56.390;-3.266;2022-11-27T02:55:52;99741.53;;;12.90;67.83
23281;BME280;11809;56.390;-3.266;2022-11-27T02:58:23;99749.09;;;12.82;68.02
23281;BME280;11809;56.390;-3.266;2022-11-27T03:00:52;99757.38;;;12.90;67.59
23281;BME280;11809;56.390;-3.266;2022-11-27T03:03:24;99756.44;;;12.91;67.71
23281;BME280;11809;56.390;-3.266;2022-11-27T03:05:55;99757.38;;;12.90;67.80
23281;BME280;11809;56.390;-3.266;2022-11-27T03:11:06;99744.75;;;12.81;67.62
23281;BME280;11809;56.390;-3.266;2022-11-27T03:13:37;99753.44;;;12.83;67.80
23281;BME280;11809;56.390;-3.266;2022-11-27T03:21:55;99770.56;;;12.90;67.62
23281;BME280;11809;56.390;-3.266;2022-11-27T03:24:23;99767.81;;;12.91;67.76
23281;BME280;11809;56.390;-3.266;2022-11-27T03:26:50;99769.81;;;12.88;67.69
23281;BME280;11809;56.390;-3.266;2022-11-27T03:29:27;99769.50;;;12.92;67.67
23281;BME280;11809;56.390;-3.266;2022-11-27T03:31:55;99781.84;;;12.92;67.76
23281;BME280;11809;56.390;-3.266;2022-11-27T03:34:23;99774.91;;;12.91;67.85
23281;BME280;11809;56.390;-3.266;2022-11-27T03:36:50;99787.22;;;12.90;67.76
23281;BME280;11809;56.390;-3.266;2022-11-27T03:39:18;99792.38;;;12.92;67.82
23281;BME280;11809;56.390;-3.266;2022-11-27T03:47:16;99806.44;;;12.92;67.70
23281;BME280;11809;56.390;-3.266;2022-11-27T04:01:25;99813.88;;;12.86;67.64
23281;BME280;11809;56.390;-3.266;2022-11-27T04:03:53;99816.59;;;12.84;67.82
23281;BME280;11809;56.390;-3.266;2022-11-27T04:06:20;99825.38;;;12.85;67.59
23281;BME280;11809;56.390;-3.266;2022-11-27T04:08:47;99830.28;;;12.91;67.49
23281;BME280;11809;56.390;-3.266;2022-11-27T04:11:14;99835.06;;;12.84;67.53
23281;BME280;11809;56.390;-3.266;2022-11-27T04:13:41;99847.88;;;12.90;67.71
23281;BME280;11809;56.390;-3.266;2022-11-27T04:16:08;99851.16;;;12.94;67.70
23281;BME280;11809;56.390;-3.266;2022-11-27T04:18:35;99850.03;;;12.84;67.68
23281;BME280;11809;56.390;-3.266;2022-11-27T04:21:02;99869.81;;;12.91;67.76
23281;BME280;11809;56.390;-3.266;2022-11-27T04:23:29;99862.09;;;12.88;67.72
23281;BME280;11809;56.390;-3.266;2022-11-27T04:25:56;99879.22;;;12.95;67.58
23281;BME280;11809;56.390;-3.266;2022-11-27T04:28:23;99884.50;;;12.95;67.61
23281;BME280;11809;56.390;-3.266;2022-11-27T04:30:51;99891.47;;;12.96;67.48
23281;BME280;11809;56.390;-3.266;2022-11-27T04:33:18;99892.41;;;12.95;67.53
23281;BME280;11809;56.390;-3.266;2022-11-27T04:35:45;99906.47;;;12.95;67.68
23281;BME280;11809;56.390;-3.266;2022-11-27T04:38:12;99910.88;;;12.95;67.41
23281;BME280;11809;56.390;-3.266;2022-11-27T04:40:39;99909.47;;;12.89;67.50
23281;BME280;11809;56.390;-3.266;2022-11-27T04:43:06;99903.72;;;12.97;67.31
23281;BME280;11809;56.390;-3.266;2022-11-27T04:45:33;99911.63;;;12.97;67.58
23281;BME280;11809;56.390;-3.266;2022-11-27T04:48:00;99908.53;;;12.90;67.58
23281;BME280;11809;56.390;-3.266;2022-11-27T04:50:27;99908.59;;;12.89;67.31
23281;BME280;11809;56.390;-3.266;2022-11-27T04:52:54;99930.81;;;12.99;67.45
23281;BME280;11809;56.390;-3.266;2022-11-27T04:55:21;99936.97;;;12.99;67.39
23281;BME280;11809;56.390;-3.266;2022-11-27T04:57:48;99947.44;;;13.01;67.36
23281;BME280;11809;56.390;-3.266;2022-11-27T05:00:15;99947.44;;;13.01;67.29
23281;BME280;11809;56.390;-3.266;2022-11-27T05:02:42;99947.50;;;12.99;67.52
23281;BME280;11809;56.390;-3.266;2022-11-27T05:05:09;99947.44;;;13.01;67.42
23281;BME280;11809;56.390;-3.266;2022-11-27T05:07:36;99954.38;;;13.02;67.40
23281;BME280;11809;56.390;-3.266;2022-11-27T05:10:04;99964.13;;;13.01;67.05
23281;BME280;11809;56.390;-3.266;2022-11-27T05:12:31;99971.91;;;13.03;67.36
23281;BME280;11809;56.390;-3.266;2022-11-27T05:14:58;99965.31;;;12.96;67.46
23281;BME280;11809;56.390;-3.266;2022-11-27T05:17:29;99978.91;;;13.04;67.32
23281;BME280;11809;56.390;-3.266;2022-11-27T05:19:56;99975.88;;;12.96;67.41
23281;BME280;11809;56.390;-3.266;2022-11-27T05:22:23;99984.72;;;12.95;67.49
23281;BME280;11809;56.390;-3.266;2022-11-27T05:24:50;99999.03;;;13.05;67.30
23281;BME280;11809;56.390;-3.266;2022-11-27T05:27:17;99992.91;;;13.04;67.37
23281;BME280;11809;56.390;-3.266;2022-11-27T05:29:44;100001.69;;;13.05;67.29
23281;BME280;11809;56.390;-3.266;2022-11-27T05:32:11;99985.41;;;12.98;67.27
23281;BME280;11809;56.390;-3.266;2022-11-27T05:34:37;100000.75;;;13.06;67.14
23281;BME280;11809;56.390;-3.266;2022-11-27T05:37:05;100006.03;;;13.06;67.12
23281;BME280;11809;56.390;-3.266;2022-11-27T05:39:32;100013.94;;;13.06;67.38
23281;BME280;11809;56.390;-3.266;2022-11-27T05:41:58;100017.34;;;13.08;67.00
23281;BME280;11809;56.390;-3.266;2022-11-27T05:44:25;100023.56;;;13.07;67.20
23281;BME280;11809;56.390;-3.266;2022-11-27T05:46:52;100013.94;;;13.06;67.01
23281;BME280;11809;56.390;-3.266;2022-11-27T05:49:19;100015.66;;;13.07;67.09
23281;BME280;11809;56.390;-3.266;2022-11-27T05:51:46;100022.63;;;13.08;67.11
23281;BME280;11809;56.390;-3.266;2022-11-27T05:54:17;100027.06;;;13.07;67.35
23281;BME280;11809;56.390;-3.266;2022-11-27T05:56:44;100026.19;;;13.07;67.31
23281;BME280;11809;56.390;-3.266;2022-11-27T05:59:11;100025.28;;;13.08;66.93
23281;BME280;11809;56.390;-3.266;2022-11-27T06:01:38;100041.16;;;13.06;67.07
23281;BME280;11809;56.390;-3.266;2022-11-27T06:04:05;100054.28;;;13.08;67.21
23281;BME280;11809;56.390;-3.266;2022-11-27T06:06:32;100053.34;;;13.09;67.06
23281;BME280;11809;56.390;-3.266;2022-11-27T06:08:59;100060.41;;;13.08;67.06
23281;BME280;11809;56.390;-3.266;2022-11-27T06:11:26;100056.81;;;13.09;67.02
23281;BME280;11809;56.390;-3.266;2022-11-27T06:13:53;100047.13;;;13.10;66.99
23281;BME280;11809;56.390;-3.266;2022-11-27T06:16:21;100041.97;;;13.08;66.87
23281;BME280;11809;56.390;-3.266;2022-11-27T06:18:54;100042.81;;;13.09;67.09
23281;BME280;11809;56.390;-3.266;2022-11-27T06:21:22;100045.44;;;13.09;67.09
23281;BME280;11809;56.390;-3.266;2022-11-27T06:23:53;100040.19;;;13.09;66.99
23281;BME280;11809;56.390;-3.266;2022-11-27T06:26:26;100039.22;;;13.10;66.95
23281;BME280;11809;56.390;-3.266;2022-11-27T06:28:55;100025.16;;;13.09;67.02
23281;BME280;11809;56.390;-3.266;2022-11-27T06:31:25;100022.63;;;13.08;67.27
23281;BME280;11809;56.390;-3.266;2022-11-27T06:33:54;100019.06;;;13.09;67.14
23281;BME280;11809;56.390;-3.266;2022-11-27T06:36:28;100001.88;;;13.02;67.09
23281;BME280;11809;56.390;-3.266;2022-11-27T06:38:55;100018.09;;;13.10;67.02
23281;BME280;11809;56.390;-3.266;2022-11-27T06:41:23;100019.88;;;13.09;67.01
23281;BME280;11809;56.390;-3.266;2022-11-27T06:43:50;100026.03;;;13.10;67.12
23281;BME280;11809;56.390;-3.266;2022-11-27T06:46:19;100027.50;;;13.00;67.03
23281;BME280;11809;56.390;-3.266;2022-11-27T06:48:48;100034.91;;;13.09;66.84
23281;BME280;11809;56.390;-3.266;2022-11-27T06:51:18;100049.00;;;13.08;67.14
23281;BME280;11809;56.390;-3.266;2022-11-27T06:53:45;100051.66;;;13.08;66.81
23281;BME280;11809;56.390;-3.266;2022-11-27T06:56:13;100050.72;;;13.09;66.98
23281;BME280;11809;56.390;-3.266;2022-11-27T06:58:41;100049.44;;;13.00;67.08
23281;BME280;11809;56.390;-3.266;2022-11-27T07:01:11;100065.69;;;13.08;66.78
23281;BME280;11809;56.390;-3.266;2022-11-27T07:03:39;100045.78;;;13.03;66.85
23281;BME280;11809;56.390;-3.266;2022-11-27T07:06:08;100063.06;;;13.08;66.78
23281;BME280;11809;56.390;-3.266;2022-11-27T07:08:35;100057.84;;;13.07;66.83
23281;BME280;11809;56.390;-3.266;2022-11-27T07:11:02;100049.50;;;12.99;66.82
23281;BME280;11809;56.390;-3.266;2022-11-27T07:13:31;100063.13;;;13.07;66.89
23281;BME280;11809;56.390;-3.266;2022-11-27T07:16:02;100057.94;;;13.05;66.79
23281;BME280;11809;56.390;-3.266;2022-11-27T07:18:34;100065.78;;;13.07;66.88
23281;BME280;11809;56.390;-3.266;2022-11-27T07:21:01;100061.41;;;13.06;66.74
23281;BME280;11809;56.390;-3.266;2022-11-27T07:23:28;100050.38;;;12.99;66.90
23281;BME280;11809;56.390;-3.266;2022-11-27T07:25:55;100058.72;;;13.07;66.67
23281;BME280;11809;56.390;-3.266;2022-11-27T07:28:23;100071.13;;;13.05;66.90
23281;BME280;11809;56.390;-3.266;2022-11-27T07:30:57;100069.34;;;13.06;66.86
23281;BME280;11809;56.390;-3.266;2022-11-27T07:33:24;100070.19;;;13.06;66.49
23281;BME280;11809;56.390;-3.266;2022-11-27T07:35:59;100071.13;;;13.05;66.63
23281;BME280;11809;56.390;-3.266;2022-11-27T07:38:26;100086.94;;;13.05;66.59
23281;BME280;11809;56.390;-3.266;2022-11-27T07:40:53;100076.41;;;13.05;66.84
23281;BME280;11809;56.390;-3.266;2022-11-27T07:43:20;100086.94;;;13.05;66.74
23281;BME280;11809;56.390;-3.266;2022-11-27T07:45:47;100070.81;;;12.96;66.59
23281;BME280;11809;56.390;-3.266;2022-11-27T07:48:14;100091.38;;;13.05;66.62
23281;BME280;11809;56.390;-3.266;2022-11-27T07:50:41;100091.38;;;13.05;66.60
23281;BME280;11809;56.390;-3.266;2022-11-27T07:53:08;100092.31;;;13.04;66.40
23281;BME280;11809;56.390;-3.266;2022-11-27T07:55:38;100090.50;;;13.04;66.47
23281;BME280;11809;56.390;-3.266;2022-11-27T07:58:06;100099.28;;;13.05;66.71
23281;BME280;11809;56.390;-3.266;2022-11-27T08:00:34;100090.09;;;12.96;66.55
23281;BME280;11809;56.390;-3.266;2022-11-27T08:03:01;100101.06;;;13.04;66.74
23281;BME280;11809;56.390;-3.266;2022-11-27T08:05:28;100103.69;;;13.04;66.69
23281;BME280;11809;56.390;-3.266;2022-11-27T08:07:58;100113.31;;;13.05;66.50
23281;BME280;11809;56.390;-3.266;2022-11-27T08:10:26;100107.19;;;13.05;66.34
23281;BME280;11809;56.390;-3.266;2022-11-27T08:12:53;100109.84;;;13.05;66.69
23281;BME280;11809;56.390;-3.266;2022-11-27T08:15:20;100113.44;;;13.04;66.60
23281;BME280;11809;56.390;-3.266;2022-11-27T08:17:47;100107.19;;;13.05;66.71
23281;BME280;11809;56.390;-3.266;2022-11-27T08:20:13;100097.59;;;13.04;66.44
23281;BME280;11809;56.390;-3.266;2022-11-27T08:22:41;100095.78;;;13.04;66.61
23281;BME280;11809;56.390;-3.266;2022-11-27T08:25:08;100088.72;;;13.05;66.51
23281;BME280;11809;56.390;-3.266;2022-11-27T08:27:35;100086.09;;;13.05;66.41
23281;BME280;11809;56.390;-3.266;2022-11-27T08:30:03;100087.88;;;13.04;66.47
23281;BME280;11809;56.390;-3.266;2022-11-27T08:32:30;100083.56;;;13.03;66.62
23281;BME280;11809;56.390;-3.266;2022-11-27T08:34:58;100073.88;;;13.04;66.71
23281;BME280;11809;56.390;-3.266;2022-11-27T08:37:25;100089.69;;;13.04;66.50
23281;BME280;11809;56.390;-3.266;2022-11-27T08:39:52;100093.16;;;13.04;66.46
23281;BME280;11809;56.390;-3.266;2022-11-27T08:42:19;100092.22;;;13.05;66.61
23281;BME280;11809;56.390;-3.266;2022-11-27T08:44:46;100094.09;;;13.03;66.37
23281;BME280;11809;56.390;-3.266;2022-11-27T08:47:13;100103.69;;;13.04;66.38
23281;BME280;11809;56.390;-3.266;2022-11-27T08:49:42;100102.03;;;13.03;66.38
23281;BME280;11809;56.390;-3.266;2022-11-27T08:52:11;100098.53;;;13.03;66.46
23281;BME280;11809;56.390;-3.266;2022-11-27T08:54:38;100094.97;;;13.04;66.52
23281;BME280;11809;56.390;-3.266;2022-11-27T08:57:06;100088.84;;;13.03;66.64
23281;BME280;11809;56.390;-3.266;2022-11-27T08:59:33;100094.97;;;13.04;66.67
23281;BME280;11809;56.390;-3.266;2022-11-27T09:02:00;100074.38;;;12.95;66.41
23281;BME280;11809;56.390;-3.266;2022-11-27T09:04:27;100083.56;;;13.03;66.40
23281;BME280;11809;56.390;-3.266;2022-11-27T09:06:54;100080.91;;;13.03;66.67
23281;BME280;11809;56.390;-3.266;2022-11-27T09:09:24;100084.41;;;13.04;66.51
23281;BME280;11809;56.390;-3.266;2022-11-27T09:11:53;100089.69;;;13.04;66.29
23281;BME280;11809;56.390;-3.266;2022-11-27T09:14:21;100093.25;;;13.03;66.36
23281;BME280;11809;56.390;-3.266;2022-11-27T09:16:48;100087.13;;;13.02;66.38
23281;BME280;11809;56.390;-3.266;2022-11-27T09:19:15;100097.66;;;13.02;66.16
23281;BME280;11809;56.390;-3.266;2022-11-27T09:21:42;100088.91;;;13.02;66.46
23281;BME280;11809;56.390;-3.266;2022-11-27T09:24:09;100097.66;;;13.02;66.36
23281;BME280;11809;56.390;-3.266;2022-11-27T09:26:37;100102.09;;;13.02;66.23
23281;BME280;11809;56.390;-3.266;2022-11-27T09:29:04;100111.81;;;13.01;66.40
23281;BME280;11809;56.390;-3.266;2022-11-27T09:31:32;100110.00;;;13.02;66.23
23281;BME280;11809;56.390;-3.266;2022-11-27T09:33:59;100117.91;;;13.02;66.43
23281;BME280;11809;56.390;-3.266;2022-11-27T09:36:26;100118.78;;;13.02;66.30
23281;BME280;11809;56.390;-3.266;2022-11-27T09:38:53;100132.91;;;13.01;66.17
23281;BME280;11809;56.390;-3.266;2022-11-27T09:43:59;100124.59;;;12.93;66.38
23281;BME280;11809;56.390;-3.266;2022-11-27T09:46:29;100132.41;;;12.95;66.32
23281;BME280;11809;56.390;-3.266;2022-11-27T09:49:00;100149.56;;;13.02;66.05
23281;BME280;11809;56.390;-3.266;2022-11-27T09:51:40;100151.38;;;13.01;66.13
23281;BME280;11809;56.390;-3.266;2022-11-27T09:54:23;100165.41;;;13.02;66.01
23281;BME280;11809;56.390;-3.266;2022-11-27T09:56:54;100160.97;;;13.02;66.28
23281;BME280;11809;56.390;-3.266;2022-11-27T09:59:27;100160.91;;;13.04;66.11
23281;BME280;11809;56.390;-3.266;2022-11-27T10:01:55;100163.53;;;13.04;66.16
23281;BME280;11809;56.390;-3.266;2022-11-27T10:04:22;100168.81;;;13.04;66.05
23281;BME280;11809;56.390;-3.266;2022-11-27T10:07:14;100146.34;;;12.97;66.19
23281;BME280;11809;56.390;-3.266;2022-11-27T10:15:06;100168.72;;;13.05;66.06
23281;BME280;11809;56.390;-3.266;2022-11-27T10:17:40;100175.63;;;13.08;66.30
23281;BME280;11809;56.390;-3.266;2022-11-27T10:30:48;100186.19;;;13.08;66.12
23281;BME280;11809;56.390;-3.266;2022-11-27T10:33:29;100183.44;;;13.09;66.15
23281;BME280;11809;56.390;-3.266;2022-11-27T10:35:59;100179.88;;;13.10;66.28
23281;BME280;11809;56.390;-3.266;2022-11-27T10:38:27;100189.59;;;13.10;66.21
23281;BME280;11809;56.390;-3.266;2022-11-27T10:41:10;100186.00;;;13.11;66.10
23281;BME280;11809;56.390;-3.266;2022-11-27T10:44:15;100192.03;;;13.13;66.28
23281;BME280;11809;56.390;-3.266;2022-11-27T10:46:44;100176.72;;;13.04;66.11
23281;BME280;11809;56.390;-3.266;2022-11-27T10:49:11;100199.03;;;13.14;66.31
23281;BME280;11809;56.390;-3.266;2022-11-27T10:51:40;100185.84;;;13.14;66.09
23281;BME280;11809;56.390;-3.266;2022-11-27T10:54:12;100194.63;;;13.14;66.36
23281;BME280;11809;56.390;-3.266;2022-11-27T10:59:25;100193.59;;;13.17;66.28
23281;BME280;11809;56.390;-3.266;2022-11-27T11:02:00;100186.09;;;13.09;66.37
23281;BME280;11809;56.390;-3.266;2022-11-27T11:04:30;100208.47;;;13.18;66.25
23281;BME280;11809;56.390;-3.266;2022-11-27T11:07:22;100204.03;;;13.18;66.24
23281;BME280;11809;56.390;-3.266;2022-11-27T11:09:50;100199.63;;;13.19;66.20
23281;BME280;11809;56.390;-3.266;2022-11-27T11:12:20;100196.97;;;13.19;66.10
23281;BME280;11809;56.390;-3.266;2022-11-27T11:14:55;100193.41;;;13.20;66.05
23281;BME280;11809;56.390;-3.266;2022-11-27T11:17:29;100190.78;;;13.20;66.20
23281;BME280;11809;56.390;-3.266;2022-11-27T11:20:00;100198.59;;;13.21;66.06
23281;BME280;11809;56.390;-3.266;2022-11-27T11:22:27;100207.34;;;13.22;66.11
23281;BME280;11809;56.390;-3.266;2022-11-27T11:24:55;100201.97;;;13.23;66.00
23281;BME280;11809;56.390;-3.266;2022-11-27T11:27:25;100192.81;;;13.15;65.94
23281;BME280;11809;56.390;-3.266;2022-11-27T11:29:58;100197.56;;;13.24;66.08
23281;BME280;11809;56.390;-3.266;2022-11-27T11:32:29;100177.81;;;13.15;66.18
23281;BME280;11809;56.390;-3.266;2022-11-27T11:34:59;100200.09;;;13.25;65.95
23281;BME280;11809;56.390;-3.266;2022-11-27T11:37:31;100193.88;;;13.26;65.82
23281;BME280;11809;56.390;-3.266;2022-11-27T11:42:55;100183.63;;;13.22;65.79
23281;BME280;11809;56.390;-3.266;2022-11-27T11:45:26;100199.84;;;13.30;65.93
23281;BME280;11809;56.390;-3.266;2022-11-27T11:47:59;100195.44;;;13.30;66.00
23281;BME280;11809;56.390;-3.266;2022-11-27T11:50:35;100202.31;;;13.33;65.94
23281;BME280;11809;56.390;-3.266;2022-11-27T11:53:17;100210.97;;;13.35;65.95
23281;BME280;11809;56.390;-3.266;2022-11-27T11:55:58;100192.84;;;13.29;65.78
23281;BME280;11809;56.390;-3.266;2022-11-27T11:59:08;100209.84;;;13.39;65.72
23281;BME280;11809;56.390;-3.266;2022-11-27T12:04:31;100193.75;;;13.44;66.03
23281;BME280;11809;56.390;-3.266;2022-11-27T12:10:00;100182.63;;;13.39;65.66
23281;BME280;11809;56.390;-3.266;2022-11-27T12:12:55;100194.22;;;13.50;65.47
23281;BME280;11809;56.390;-3.266;2022-11-27T12:15:49;100179.59;;;13.45;65.70
23281;BME280;11809;56.390;-3.266;2022-11-27T12:21:19;100190.38;;;13.56;65.74
23281;BME280;11809;56.390;-3.266;2022-11-27T12:26:57;100179.66;;;13.59;65.79
23281;BME280;11809;56.390;-3.266;2022-11-27T12:40:47;100169.75;;;13.62;65.27
23281;BME280;11809;56.390;-3.266;2022-11-27T12:45:56;100150.59;;;13.59;65.39
23281;BME280;11809;56.390;-3.266;2022-11-27T12:48:26;100149.22;;;13.67;65.37
23281;BME280;11809;56.390;-3.266;2022-11-27T12:51:06;100132.88;;;13.61;65.25
23281;BME280;11809;56.390;-3.266;2022-11-27T12:59:25;100132.88;;;13.75;65.13
23281;BME280;11809;56.390;-3.266;2022-11-27T13:02:04;100128.34;;;13.77;64.99
23281;BME280;11809;56.390;-3.266;2022-11-27T13:04:41;100117.78;;;13.77;65.09
23281;BME280;11809;56.390;-3.266;2022-11-27T13:07:17;100118.53;;;13.79;65.13
23281;BME280;11809;56.390;-3.266;2022-11-27T13:10:44;100120.53;;;13.75;65.34
23281;BME280;11809;56.390;-3.266;2022-11-27T13:13:05;100116.28;;;13.73;65.40
23281;BME280;11809;56.390;-3.266;2022-11-27T13:15:55;100111.84;;;13.73;65.47
23281;BME280;11809;56.390;-3.266;2022-11-27T13:20:59;100107.34;;;13.75;65.02
23281;BME280;11809;56.390;-3.266;2022-11-27T13:23:31;100112.50;;;13.77;65.11
23281;BME280;11809;56.390;-3.266;2022-11-27T13:26:03;100102.81;;;13.77;65.27
23281;BME280;11809;56.390;-3.266;2022-11-27T13:28:38;100101.75;;;13.80;65.04
23281;BME280;11809;56.390;-3.266;2022-11-27T13:31:13;100107.78;;;13.82;65.15
23281;BME280;11809;56.390;-3.266;2022-11-27T13:33:45;100106.00;;;13.82;65.10
23281;BME280;11809;56.390;-3.266;2022-11-27T13:36:21;100103.34;;;13.82;65.14
23281;BME280;11809;56.390;-3.266;2022-11-27T13:39:00;100094.59;;;13.82;64.96
23281;BME280;11809;56.390;-3.266;2022-11-27T13:41:38;100083.56;;;13.75;64.84
23281;BME280;11809;56.390;-3.266;2022-11-27T13:44:26;100091.00;;;13.83;64.95
23281;BME280;11809;56.390;-3.266;2022-11-27T13:47:03;100082.13;;;13.84;65.11
23281;BME280;11809;56.390;-3.266;2022-11-27T13:49:33;100085.63;;;13.84;65.06
23281;BME280;11809;56.390;-3.266;2022-11-27T13:52:15;100085.63;;;13.84;64.83
23281;BME280;11809;56.390;-3.266;2022-11-27T13:54:59;100083.94;;;13.83;65.03
23281;BME280;11809;56.390;-3.266;2022-11-27T13:57:28;100087.41;;;13.84;64.98
23281;BME280;11809;56.390;-3.266;2022-11-27T13:59:58;100082.22;;;13.82;64.99
23281;BME280;11809;56.390;-3.266;2022-11-27T14:05:11;100067.06;;;13.72;64.91
23281;BME280;11809;56.390;-3.266;2022-11-27T14:07:42;100083.38;;;13.78;64.98
23281;BME280;11809;56.390;-3.266;2022-11-27T14:10:14;100082.53;;;13.78;65.30
23281;BME280;11809;56.390;-3.266;2022-11-27T14:12:54;100077.44;;;13.75;64.92
23281;BME280;11809;56.390;-3.266;2022-11-27T14:15:24;100071.66;;;13.68;64.96
23281;BME280;11809;56.390;-3.266;2022-11-27T14:20:48;100060.00;;;13.72;65.12
23281;BME280;11809;56.390;-3.266;2022-11-27T14:23:48;100047.34;;;13.63;65.17
23281;BME280;11809;56.390;-3.266;2022-11-27T14:26:23;100051.22;;;13.72;65.10
23281;BME280;11809;56.390;-3.266;2022-11-27T14:28:53;100029.91;;;13.61;65.10
23281;BME280;11809;56.390;-3.266;2022-11-27T14:31:32;100031.59;;;13.62;65.27
23281;BME280;11809;56.390;-3.266;2022-11-27T14:34:01;100044.34;;;13.69;65.12
23281;BME280;11809;56.390;-3.266;2022-11-27T14:36:51;100011.53;;;13.59;65.29
23281;BME280;11809;56.390;-3.266;2022-11-27T14:41:59;100035.66;;;13.67;65.35
23281;BME280;11809;56.390;-3.266;2022-11-27T14:44:28;100020.75;;;13.66;65.14
23281;BME280;11809;56.390;-3.266;2022-11-27T14:46:57;100024.31;;;13.65;65.26
23281;BME280;11809;56.390;-3.266;2022-11-27T14:49:27;100014.63;;;13.66;65.20
23281;BME280;11809;56.390;-3.266;2022-11-27T14:51:59;100011.22;;;13.64;65.10
23281;BME280;11809;56.390;-3.266;2022-11-27T14:54:32;100004.16;;;13.64;65.19
23281;BME280;11809;56.390;-3.266;2022-11-27T14:57:01;100005.09;;;13.63;65.18